CheckWX is a tool to help pilots better visualize weather data.  It is not intended as a substitute for an official pre-flight weather briefing.

08:27:36 UTC

LEVC TAF
Valencia Airport
Valencia, Spain
TAF LEVC 190500Z 1906/2006 30006KT 9999 FEW025 TX17/1913Z TN07/1906Z BECMG 1910/1912 09010KT BECMG 1920/1922 30005KT PROB30 TEMPO 1920/1924 RA BKN040

Mar-19@
06:00 UTC

Mar-19 @ 06:00 UTC

Mar-19@
10:00 UTC

Mar-19 @ 10:00 UTC

TAF LEVC 190500Z 1906/2006 30006KT 9999 FEW025 TX17/1913Z TN07/1906Z
Wind
  • 300° at 6 KTS
Cloud Levels
  • Few at 2,500' AGL

Mar-19@
10:00 UTC

Mar-19 @ 10:00 UTC

Mar-19@
20:00 UTC

Mar-19 @ 20:00 UTC

BECMG 1910/1912 09010KT

Becoming

Becoming Conditions expected by Tue, Mar 19, 2019 @ 12:00 UTC

Wind
  • 090° at 10 KTS
Cloud Levels
  • Few at 2,500' AGL

Mar-19@
20:00 UTC

Mar-19 @ 20:00 UTC

Mar-20@
00:00 UTC

Mar-20 @ 00:00 UTC

PROB30 TEMPO 1920/1924 RA BKN040

Temporary - 30% Likelihood

Temporary - 30% Likelihood during this time.

Conditions
Rain
Cloud Levels
  • Broken at 4,000' AGL

Mar-19@
20:00 UTC

Mar-19 @ 20:00 UTC

Mar-20@
06:00 UTC

Mar-20 @ 06:00 UTC

BECMG 1920/1922 30005KT

Becoming

Becoming Conditions expected by Tue, Mar 19, 2019 @ 22:00 UTC

Wind
  • 300° at 5 KTS
Cloud Levels
  • Few at 2,500' AGL